Time;durP1;ratioP1;P1;durP2;ratioP2;P2;SDS_P1;SDS_P2;PMS_P1;PMS_P2;Temp;Humidity;BMP_temperature;BMP_pressure;BME280_temperature;BME280_humidity;BME280_pressure;Samples;Min_cycle;Max_cycle;Signal;HPM_P1;HPM_P2
2021/11/27 00:01:18;;;;;;;27.73;16.40;;;;;;;3.45;97.91;98518.16;5030528;28;20245;-68
2021/11/27 00:03:43;;;;;;;27.80;15.45;;;;;;;3.41;98.44;98521.22;5042196;28;20485;-68
2021/11/27 00:06:09;;;;;;;29.08;17.00;;;;;;;3.33;98.37;98536.94;5040109;28;20028;-69
2021/11/27 00:08:35;;;;;;;29.45;16.38;;;;;;;3.20;99.26;98520.44;5042301;28;20071;-68
2021/11/27 00:11:02;;;;;;;29.85;17.25;;;;;;;3.29;99.13;98527.59;5017737;28;20453;-67
2021/11/27 00:13:28;;;;;;;29.23;17.17;;;;;;;3.26;99.06;98530.50;5035929;28;20444;-68
2021/11/27 00:15:54;;;;;;;32.15;17.58;;;;;;;3.24;99.19;98525.34;5031541;28;20079;-68
2021/11/27 00:18:21;;;;;;;31.67;17.38;;;;;;;3.22;98.99;98531.75;5036908;28;20043;-68
2021/11/27 00:21:08;;;;;;;31.33;18.05;;;;;;;3.18;99.20;98535.63;5043452;28;20041;-68
2021/11/27 00:23:37;;;;;;;27.98;16.73;;;;;;;3.19;99.83;98539.97;5033205;28;20026;-67
2021/11/27 00:26:05;;;;;;;27.88;17.38;;;;;;;3.19;99.74;98529.38;5034984;28;20025;-68
2021/11/27 00:28:31;;;;;;;29.83;16.95;;;;;;;3.15;100.00;98525.28;5022678;28;20054;-68
2021/11/27 00:31:03;;;;;;;28.42;16.58;;;;;;;3.19;99.29;98534.66;5035519;28;20037;-69
2021/11/27 00:33:28;;;;;;;27.42;16.35;;;;;;;3.16;99.77;98533.09;5033472;28;20111;-68
2021/11/27 00:35:54;;;;;;;29.52;16.95;;;;;;;3.12;100.00;98525.53;5039928;28;20464;-68
2021/11/27 00:38:20;;;;;;;30.95;16.80;;;;;;;3.18;100.00;98541.75;5034708;28;20029;-68
2021/11/27 00:40:46;;;;;;;29.88;18.20;;;;;;;3.21;99.74;98532.72;5032653;28;20128;-68
2021/11/27 00:43:12;;;;;;;31.40;18.88;;;;;;;3.19;98.53;98529.38;5038396;28;20036;-67
2021/11/27 00:45:39;;;;;;;31.65;18.83;;;;;;;3.22;98.55;98537.06;5039503;28;20029;-67
2021/11/27 00:48:06;;;;;;;28.83;17.48;;;;;;;3.35;96.56;98548.28;5039586;28;20392;-67
2021/11/27 00:50:46;;;;;;;32.30;18.67;;;;;;;3.26;96.88;98549.06;5044646;28;20115;-67
2021/11/27 00:53:11;;;;;;;32.85;18.98;;;;;;;3.29;96.29;98548.78;5036225;28;20365;-68
2021/11/27 00:55:40;;;;;;;36.20;18.60;;;;;;;3.23;96.98;98544.03;5040752;28;20033;-68
2021/11/27 00:58:06;;;;;;;36.28;20.77;;;;;;;3.21;97.24;98551.25;5044260;28;20028;-69
2021/11/27 01:00:38;;;;;;;35.15;19.63;;;;;;;3.21;97.02;98538.00;5041751;28;20021;-68
2021/11/27 01:03:06;;;;;;;35.63;19.85;;;;;;;3.20;96.92;98521.28;5043960;28;20033;-68
2021/11/27 01:05:34;;;;;;;37.40;19.92;;;;;;;3.19;97.62;98534.66;5026037;28;20335;-68
2021/11/27 01:08:00;;;;;;;36.17;19.80;;;;;;;3.10;97.21;98538.09;5036317;28;20033;-68
2021/11/27 01:10:28;;;;;;;38.10;20.58;;;;;;;3.11;97.85;98540.63;5028152;28;20123;-68
2021/11/27 01:12:54;;;;;;;37.85;19.90;;;;;;;3.12;97.48;98550.22;5042808;28;20029;-68
2021/11/27 01:15:25;;;;;;;40.00;21.35;;;;;;;3.09;98.19;98552.31;5051059;28;20133;-69
2021/11/27 01:17:51;;;;;;;33.40;18.98;;;;;;;2.97;98.82;98529.53;5040133;28;20060;-69
2021/11/27 01:20:20;;;;;;;33.17;18.52;;;;;;;3.14;98.51;98544.81;5037133;28;20017;-68
2021/11/27 01:22:47;;;;;;;37.63;20.88;;;;;;;3.02;98.21;98524.66;5046147;28;20117;-69
2021/11/27 01:25:12;;;;;;;37.22;20.40;;;;;;;3.04;98.53;98535.97;5040494;28;20476;-68
2021/11/27 01:27:38;;;;;;;36.38;18.88;;;;;;;3.05;98.84;98545.59;5035520;28;20033;-69
2021/11/27 01:30:07;;;;;;;37.53;20.77;;;;;;;3.04;98.49;98550.06;5034983;28;20037;-68
2021/11/27 01:32:33;;;;;;;34.72;20.23;;;;;;;2.98;98.92;98550.59;5040340;28;20118;-68
2021/11/27 01:34:59;;;;;;;36.35;20.65;;;;;;;2.97;99.67;98543.59;5040337;28;20120;-68
2021/11/27 01:37:24;;;;;;;34.95;19.85;;;;;;;2.97;99.65;98553.34;5037807;28;20104;-68
2021/11/27 01:39:50;;;;;;;36.13;19.95;;;;;;;2.87;99.82;98534.75;5037332;28;20054;-67
2021/11/27 01:42:16;;;;;;;37.13;20.13;;;;;;;2.95;99.96;98553.50;5034864;28;20029;-67
2021/11/27 01:44:42;;;;;;;37.92;19.40;;;;;;;2.99;100.00;98548.75;5036878;28;20032;-68
2021/11/27 01:47:08;;;;;;;36.22;20.15;;;;;;;2.98;100.00;98555.88;5039342;28;20473;-68
2021/11/27 01:49:34;;;;;;;36.03;20.80;;;;;;;2.99;99.88;98557.53;5030180;28;20067;-68
2021/11/27 01:52:00;;;;;;;36.28;19.88;;;;;;;2.96;100.00;98555.16;5033738;28;20026;-69
2021/11/27 01:54:25;;;;;;;36.63;19.35;;;;;;;3.01;99.99;98573.31;5029709;28;20084;-69
2021/11/27 01:56:55;;;;;;;38.45;20.30;;;;;;;3.01;99.61;98565.34;5035738;28;20036;-68
2021/11/27 01:59:22;;;;;;;37.92;19.70;;;;;;;3.02;99.32;98573.16;5038063;28;20111;-68
2021/11/27 02:01:49;;;;;;;34.67;19.92;;;;;;;2.99;99.75;98562.00;5036302;28;20044;-68
2021/11/27 02:04:14;;;;;;;40.42;19.83;;;;;;;2.99;99.45;98562.00;5031167;28;20033;-68
2021/11/27 02:06:42;;;;;;;35.92;19.58;;;;;;;3.04;98.32;98567.75;5037678;28;20122;-68
2021/11/27 02:09:13;;;;;;;36.50;20.05;;;;;;;3.01;98.31;98560.06;5039239;28;20031;-68
2021/11/27 02:11:39;;;;;;;37.92;19.67;;;;;;;3.04;97.62;98557.16;5034941;28;20508;-67
2021/11/27 02:14:07;;;;;;;33.55;18.80;;;;;;;3.08;97.56;98561.22;5036024;28;20025;-67
2021/11/27 02:16:34;;;;;;;39.63;19.80;;;;;;;2.97;97.74;98567.41;5033836;28;20025;-68
2021/11/27 02:18:59;;;;;;;36.92;20.48;;;;;;;2.96;98.31;98556.97;5019134;28;20512;-69
2021/11/27 02:21:25;;;;;;;39.30;21.25;;;;;;;2.84;98.93;98550.06;5034344;28;20028;-67
2021/11/27 02:23:53;;;;;;;42.58;21.67;;;;;;;2.86;99.21;98556.06;5018779;28;20034;-68
2021/11/27 02:26:27;;;;;;;37.17;19.77;;;;;;;2.90;99.23;98578.69;5033851;28;20033;-68
2021/11/27 02:28:57;;;;;;;38.97;20.48;;;;;;;2.88;99.85;98570.88;5033756;28;20044;-68
2021/11/27 02:31:24;;;;;;;36.72;20.17;;;;;;;2.89;99.48;98569.88;5038523;28;20456;-69
2021/11/27 02:33:51;;;;;;;33.85;19.58;;;;;;;2.88;99.29;98575.31;5039611;28;20112;-67
2021/11/27 02:36:16;;;;;;;38.03;19.95;;;;;;;2.84;99.43;98573.91;5035224;28;20080;-68
2021/11/27 02:38:42;;;;;;;35.65;20.13;;;;;;;2.84;99.62;98573.91;5035862;28;20029;-67
2021/11/27 02:41:08;;;;;;;40.13;21.95;;;;;;;2.74;99.89;98554.47;5034574;28;20484;-68
2021/11/27 02:43:33;;;;;;;38.10;20.58;;;;;;;2.87;99.79;98571.00;5038292;28;20504;-68
2021/11/27 02:45:59;;;;;;;33.47;19.05;;;;;;;2.71;99.69;98552.06;5020597;28;20047;-68
2021/11/27 02:48:24;;;;;;;36.00;19.08;;;;;;;2.72;99.72;98556.41;5043865;28;20392;-68
2021/11/27 02:50:50;;;;;;;38.78;20.23;;;;;;;2.82;99.87;98578.47;5039462;28;20041;-67
2021/11/27 02:53:16;;;;;;;39.28;21.10;;;;;;;2.71;100.00;98549.44;5041652;28;20464;-68
2021/11/27 02:55:43;;;;;;;32.30;19.02;;;;;;;2.80;100.00;98583.88;5038963;28;20086;-68
2021/11/27 02:58:09;;;;;;;37.35;20.05;;;;;;;2.77;100.00;98585.97;5038955;28;20029;-67
2021/11/27 03:00:34;;;;;;;35.08;19.60;;;;;;;2.77;99.88;98585.97;5046622;28;20558;-68
2021/11/27 03:03:00;;;;;;;37.72;19.90;;;;;;;2.78;100.00;98588.50;5040884;28;20044;-67
2021/11/27 03:05:25;;;;;;;34.95;20.30;;;;;;;2.78;100.00;98583.19;5048667;28;20029;-67
2021/11/27 03:07:51;;;;;;;39.85;21.13;;;;;;;2.81;100.00;98590.88;5022750;28;20025;-68
2021/11/27 03:10:19;;;;;;;39.08;20.45;;;;;;;2.84;100.00;98580.00;5037131;28;20017;-68
2021/11/27 03:12:45;;;;;;;36.58;18.55;;;;;;;2.80;99.83;98578.59;5033446;28;20061;-68
2021/11/27 03:15:13;;;;;;;35.92;19.13;;;;;;;2.82;99.85;98581.13;5043536;28;20071;-67
2021/11/27 03:17:39;;;;;;;35.50;19.95;;;;;;;2.86;99.98;98587.81;5038159;28;20028;-67
2021/11/27 03:20:07;;;;;;;38.67;19.70;;;;;;;2.80;100.00;98577.78;5036400;28;20092;-67
2021/11/27 03:22:32;;;;;;;33.80;19.00;;;;;;;2.87;100.00;98589.53;5032453;28;20029;-68
2021/11/27 03:24:58;;;;;;;36.13;19.30;;;;;;;2.84;100.00;98569.41;5021722;28;20033;-67
2021/11/27 03:27:24;;;;;;;33.90;18.83;;;;;;;2.93;100.00;98586.38;5036206;28;20025;-68
2021/11/27 03:29:49;;;;;;;35.75;19.45;;;;;;;2.94;100.00;98574.78;5036026;28;20477;-68
2021/11/27 03:32:17;;;;;;;34.63;18.30;;;;;;;2.94;99.36;98578.28;5038621;28;20029;-68
2021/11/27 03:34:43;;;;;;;37.65;20.13;;;;;;;2.95;99.94;98577.31;5030740;28;20040;-68
2021/11/27 03:37:09;;;;;;;34.97;18.10;;;;;;;2.93;99.60;98571.28;5035648;28;20037;-68
2021/11/27 03:39:36;;;;;;;35.08;20.15;;;;;;;2.97;99.86;98583.31;5028088;28;20049;-68
2021/11/27 03:42:08;;;;;;;34.35;18.70;;;;;;;2.92;99.50;98569.63;5035979;28;20025;-68
2021/11/27 03:44:34;;;;;;;34.53;19.77;;;;;;;2.95;99.79;98582.59;5035916;28;20029;-67
2021/11/27 03:47:00;;;;;;;35.50;18.90;;;;;;;2.96;99.05;98583.47;5041471;28;20389;-68
2021/11/27 03:49:30;;;;;;;32.83;18.48;;;;;;;2.90;99.34;98570.75;5019889;28;20028;-67
2021/11/27 03:51:57;;;;;;;38.30;18.70;;;;;;;2.93;99.14;98584.53;5037392;28;20400;-68
2021/11/27 03:54:23;;;;;;;35.00;19.20;;;;;;;2.95;100.00;98593.19;5037977;28;20064;-68
2021/11/27 03:56:49;;;;;;;32.65;17.55;;;;;;;2.90;100.00;98584.78;5044500;28;20025;-68
2021/11/27 03:59:15;;;;;;;34.25;19.20;;;;;;;2.92;100.00;98587.31;5034651;28;20385;-68
2021/11/27 04:01:40;;;;;;;37.10;19.15;;;;;;;2.95;100.00;98592.34;5037516;28;20025;-68
2021/11/27 04:04:06;;;;;;;32.88;17.85;;;;;;;2.98;99.91;98610.63;5032083;28;20026;-68
2021/11/27 04:06:34;;;;;;;32.13;17.55;;;;;;;2.99;99.80;98605.19;5045035;28;20056;-68
2021/11/27 04:09:00;;;;;;;35.58;18.10;;;;;;;2.99;99.55;98610.50;5037306;28;20370;-68
2021/11/27 04:11:28;;;;;;;32.38;18.67;;;;;;;2.96;98.94;98609.94;5032158;28;20370;-68
2021/11/27 04:13:54;;;;;;;33.17;18.20;;;;;;;2.91;98.71;98596.22;5035539;28;20025;-67
2021/11/27 04:16:20;;;;;;;37.03;18.50;;;;;;;2.94;99.11;98606.56;5015020;28;20036;-67
2021/11/27 04:18:45;;;;;;;29.88;15.55;;;;;;;2.91;98.87;98601.53;5025198;28;20048;-67
2021/11/27 04:21:12;;;;;;;32.70;17.80;;;;;;;2.93;99.20;98610.19;5032624;28;20036;-68
2021/11/27 04:23:38;;;;;;;32.88;18.48;;;;;;;2.92;98.59;98606.69;5034832;28;20025;-69
2021/11/27 04:26:04;;;;;;;29.27;15.90;;;;;;;2.89;98.95;98603.44;5020776;28;20114;-68
2021/11/27 04:28:30;;;;;;;32.47;17.25;;;;;;;2.91;98.85;98614.75;5038397;28;20053;-68
2021/11/27 04:30:56;;;;;;;29.70;16.02;;;;;;;2.81;98.84;98590.03;5044070;28;20053;-67
2021/11/27 04:33:21;;;;;;;32.47;17.27;;;;;;;2.80;98.86;98606.88;5026177;28;20432;-67
2021/11/27 04:35:47;;;;;;;33.72;17.10;;;;;;;2.82;98.65;98621.66;5031157;28;20018;-67
2021/11/27 04:38:14;;;;;;;32.88;17.15;;;;;;;2.80;98.29;98614.84;5036286;28;20029;-68
2021/11/27 04:40:39;;;;;;;30.35;16.98;;;;;;;2.67;98.06;98598.28;5035387;28;20131;-68
2021/11/27 04:43:05;;;;;;;30.58;16.50;;;;;;;2.71;98.56;98615.59;5033205;28;20029;-68
2021/11/27 04:45:32;;;;;;;32.53;17.50;;;;;;;2.70;98.36;98609.44;5033822;28;20108;-67
2021/11/27 04:48:00;;;;;;;32.85;17.50;;;;;;;2.64;98.30;98611.78;5038980;28;20033;-68
2021/11/27 04:50:27;;;;;;;29.30;16.92;;;;;;;2.59;98.43;98616.59;5039166;28;20474;-67
2021/11/27 04:52:52;;;;;;;32.50;16.98;;;;;;;2.55;99.09;98617.81;5033370;28;20029;-68
2021/11/27 04:55:18;;;;;;;32.30;17.00;;;;;;;2.49;99.17;98624.47;5044100;28;20031;-68
2021/11/27 04:57:44;;;;;;;29.60;16.65;;;;;;;2.49;99.64;98635.03;5037786;28;20388;-67
2021/11/27 05:00:20;;;;;;;29.75;15.98;;;;;;;2.46;99.58;98632.66;5040478;28;20033;-66
2021/11/27 05:02:45;;;;;;;31.50;17.02;;;;;;;2.39;99.67;98634.94;5020896;28;20140;-67
2021/11/27 05:05:11;;;;;;;31.30;17.08;;;;;;;2.38;99.63;98628.94;5030187;28;20451;-68
2021/11/27 05:07:36;;;;;;;34.38;17.73;;;;;;;2.38;100.00;98638.56;5036327;28;20123;-67
2021/11/27 05:10:02;;;;;;;30.67;17.50;;;;;;;2.27;99.87;98628.03;5038040;28;20056;-67
2021/11/27 05:12:28;;;;;;;33.35;17.58;;;;;;;2.23;100.00;98634.50;5034917;28;20064;-68
2021/11/27 05:14:53;;;;;;;35.10;17.83;;;;;;;2.33;100.00;98659.22;5036189;28;20053;-67
2021/11/27 05:17:19;;;;;;;35.63;19.27;;;;;;;2.29;100.00;98646.41;5017674;28;20029;-66
2021/11/27 05:19:46;;;;;;;30.42;17.85;;;;;;;2.25;100.00;98659.03;5035713;28;20170;-68
2021/11/27 05:22:12;;;;;;;28.85;16.23;;;;;;;2.20;100.00;98647.16;5036866;28;20040;-66
2021/11/27 05:24:43;;;;;;;34.70;17.63;;;;;;;2.25;100.00;98664.31;5033600;28;20029;-68
2021/11/27 05:27:14;;;;;;;31.95;18.30;;;;;;;2.20;100.00;98661.19;5033212;28;20060;-67
2021/11/27 05:29:41;;;;;;;33.20;17.35;;;;;;;2.20;100.00;98661.19;5036696;28;20025;-67
2021/11/27 05:32:09;;;;;;;34.92;17.35;;;;;;;2.18;100.00;98668.41;5037826;28;20040;-67
2021/11/27 05:34:35;;;;;;;31.92;17.15;;;;;;;2.18;100.00;98659.63;5032634;28;20025;-67
2021/11/27 05:37:04;;;;;;;32.78;17.35;;;;;;;2.17;100.00;98663.25;5032172;28;20101;-67
2021/11/27 05:39:29;;;;;;;30.70;16.25;;;;;;;2.16;100.00;98667.69;5031942;28;20038;-66
2021/11/27 05:41:55;;;;;;;30.83;17.48;;;;;;;2.12;99.82;98665.41;5036185;28;20036;-67
2021/11/27 05:44:21;;;;;;;30.83;17.00;;;;;;;1.94;100.00;98641.28;5037768;28;20037;-66
2021/11/27 05:46:47;;;;;;;29.58;16.27;;;;;;;2.01;100.00;98668.09;5047685;28;20029;-67
2021/11/27 05:49:12;;;;;;;31.40;17.27;;;;;;;2.06;100.00;98684.41;5045617;28;20025;-67
2021/11/27 05:51:38;;;;;;;30.95;16.45;;;;;;;2.01;99.87;98678.66;5037598;28;20043;-67
2021/11/27 05:54:03;;;;;;;33.80;17.25;;;;;;;2.02;100.00;98683.81;5031028;28;20022;-67
2021/11/27 05:56:29;;;;;;;31.05;16.15;;;;;;;1.98;100.00;98690.31;5030027;28;20039;-67
2021/11/27 05:58:56;;;;;;;30.85;16.55;;;;;;;1.99;100.00;98688.50;5040915;28;20025;-68
2021/11/27 06:01:23;;;;;;;29.35;15.77;;;;;;;1.99;100.00;98696.44;5036943;28;20497;-67
2021/11/27 06:03:48;;;;;;;28.77;15.45;;;;;;;1.89;100.00;98683.13;5029931;28;20083;-67
2021/11/27 06:06:14;;;;;;;31.25;15.90;;;;;;;1.83;100.00;98674.81;5029405;28;20030;-67
2021/11/27 06:08:39;;;;;;;32.50;16.25;;;;;;;1.98;100.00;98700.91;5037882;28;20026;-67
2021/11/27 06:11:04;;;;;;;29.08;15.20;;;;;;;1.95;100.00;98685.28;5035706;28;20021;-67
2021/11/27 06:13:30;;;;;;;28.05;15.73;;;;;;;1.82;100.00;98668.69;5042735;28;20048;-67
2021/11/27 06:15:56;;;;;;;29.25;15.15;;;;;;;1.94;100.00;98688.84;5031888;28;20080;-68
2021/11/27 06:18:21;;;;;;;28.77;15.55;;;;;;;1.93;100.00;98696.91;5035065;28;20029;-67
2021/11/27 06:20:46;;;;;;;26.95;15.15;;;;;;;1.91;100.00;98696.22;5030463;28;20111;-67
2021/11/27 06:23:12;;;;;;;29.98;15.25;;;;;;;1.91;100.00;98688.28;5029508;28;20053;-67
2021/11/27 06:25:38;;;;;;;29.42;15.82;;;;;;;1.96;100.00;98705.44;5045226;28;20477;-67
2021/11/27 06:28:03;;;;;;;30.10;15.75;;;;;;;1.84;100.00;98685.25;5049221;28;20352;-67
2021/11/27 06:30:29;;;;;;;28.85;16.52;;;;;;;1.96;100.00;98702.81;5030082;28;20029;-67
2021/11/27 06:32:54;;;;;;;29.42;15.77;;;;;;;1.90;100.00;98686.56;5037503;28;20029;-67
2021/11/27 06:35:20;;;;;;;29.88;16.10;;;;;;;1.93;100.00;98689.81;5031433;28;20024;-67
2021/11/27 06:37:45;;;;;;;31.40;16.90;;;;;;;1.97;100.00;98699.19;5037149;28;20037;-68
2021/11/27 06:40:12;;;;;;;28.40;15.73;;;;;;;1.96;100.00;98696.66;5029194;28;20048;-68
2021/11/27 06:42:38;;;;;;;27.00;15.05;;;;;;;1.97;100.00;98699.19;5039797;28;20025;-68
2021/11/27 06:45:04;;;;;;;32.40;16.25;;;;;;;1.84;100.00;98681.78;5044582;28;20174;-67
2021/11/27 06:47:30;;;;;;;28.20;15.82;;;;;;;1.98;100.00;98708.81;5032703;28;20017;-67
2021/11/27 06:49:55;;;;;;;28.08;14.98;;;;;;;2.01;100.00;98711.22;5031768;28;20060;-68
2021/11/27 06:52:21;;;;;;;28.05;15.95;;;;;;;1.95;100.00;98695.00;5032172;28;20033;-68
2021/11/27 06:54:46;;;;;;;29.05;16.25;;;;;;;1.88;100.00;98689.38;5031088;28;20037;-68
2021/11/27 06:57:13;;;;;;;29.23;16.10;;;;;;;2.04;100.00;98720.72;5030057;28;20503;-68
2021/11/27 06:59:39;;;;;;;29.90;16.10;;;;;;;2.02;100.00;98727.91;5041027;28;20036;-67
2021/11/27 07:02:05;;;;;;;30.60;15.82;;;;;;;2.09;100.00;98729.97;5028084;28;20767;-68
2021/11/27 07:04:31;;;;;;;33.25;17.63;;;;;;;2.08;100.00;98730.94;5040648;28;20058;-68
2021/11/27 07:06:57;;;;;;;30.52;15.88;;;;;;;2.16;100.00;98744.38;5037962;28;20032;-67
2021/11/27 07:09:22;;;;;;;31.48;16.58;;;;;;;2.19;100.00;98749.41;5045808;28;20028;-67
2021/11/27 07:11:49;;;;;;;30.10;16.50;;;;;;;2.23;100.00;98748.22;5015822;28;20528;-67
2021/11/27 07:14:15;;;;;;;31.80;16.10;;;;;;;2.16;100.00;98732.97;5043810;28;20028;-68
2021/11/27 07:16:40;;;;;;;29.00;15.70;;;;;;;2.34;100.00;98758.81;5038762;28;20464;-68
2021/11/27 07:19:06;;;;;;;33.67;17.70;;;;;;;2.38;100.00;98746.16;5035556;28;20029;-67
2021/11/27 07:21:32;;;;;;;34.75;17.98;;;;;;;2.41;100.00;98735.31;5020754;28;20017;-69
2021/11/27 07:23:57;;;;;;;35.20;18.85;;;;;;;2.51;100.00;98752.16;5035739;28;20063;-67
2021/11/27 07:26:23;;;;;;;33.58;17.42;;;;;;;2.60;100.00;98753.22;5038489;28;20104;-68
2021/11/27 07:28:50;;;;;;;36.03;17.65;;;;;;;2.69;100.00;98760.41;5038374;28;20484;-67
2021/11/27 07:31:16;;;;;;;40.28;18.92;;;;;;;2.62;100.00;98738.06;5035345;28;20045;-69
2021/11/27 07:33:42;;;;;;;33.20;19.15;;;;;;;2.75;100.00;98744.03;5040639;28;20025;-67
2021/11/27 07:36:08;;;;;;;31.85;16.98;;;;;;;2.91;100.00;98755.06;5031695;28;20026;-68
2021/11/27 07:38:34;;;;;;;36.15;17.67;;;;;;;3.01;100.00;98761.28;5041088;28;20459;-68
2021/11/27 07:41:00;;;;;;;33.97;17.10;;;;;;;3.02;100.00;98755.00;5031867;28;20560;-67
2021/11/27 07:43:26;;;;;;;33.60;18.33;;;;;;;3.10;99.58;98769.34;5037682;28;20033;-68
2021/11/27 07:45:52;;;;;;;34.03;18.10;;;;;;;3.15;99.21;98774.22;5042572;28;20033;-68
2021/11/27 07:48:18;;;;;;;37.85;19.40;;;;;;;3.14;98.89;98768.13;5037694;28;20094;-67
2021/11/27 07:50:43;;;;;;;34.53;17.65;;;;;;;3.22;98.86;98786.03;5038422;28;20047;-68
2021/11/27 07:53:09;;;;;;;37.88;18.15;;;;;;;3.30;98.63;98794.16;5033333;28;20493;-68
2021/11/27 07:55:35;;;;;;;31.48;17.40;;;;;;;3.32;98.31;98789.59;5036073;28;20059;-67
2021/11/27 07:58:00;;;;;;;31.67;17.85;;;;;;;3.35;97.84;98784.03;5019458;28;20052;-68
2021/11/27 08:00:26;;;;;;;34.95;18.23;;;;;;;3.48;97.45;98801.44;5012820;28;20413;-67
2021/11/27 08:02:51;;;;;;;34.42;20.30;;;;;;;3.52;97.19;98783.47;5029654;28;20082;-68
2021/11/27 08:05:17;;;;;;;35.75;20.38;;;;;;;3.51;96.89;98787.91;5038787;28;20087;-68
2021/11/27 08:07:43;;;;;;;34.28;18.52;;;;;;;3.44;96.58;98770.00;5015640;28;20043;-69
2021/11/27 08:10:11;;;;;;;34.70;17.58;;;;;;;3.65;96.37;98797.38;5036423;28;20042;-67
2021/11/27 08:12:37;;;;;;;31.80;16.55;;;;;;;3.61;95.74;98786.19;5043362;28;20079;-68
2021/11/27 08:15:04;;;;;;;35.13;17.90;;;;;;;3.74;95.52;98804.56;5030301;28;20037;-68
2021/11/27 08:17:30;;;;;;;31.38;17.02;;;;;;;3.81;95.32;98813.69;5030199;28;20033;-67
2021/11/27 08:19:56;;;;;;;33.00;16.58;;;;;;;3.81;95.22;98801.25;5018036;28;20040;-68
2021/11/27 08:22:21;;;;;;;28.55;16.15;;;;;;;3.89;95.02;98808.56;5035831;28;20025;-68
2021/11/27 08:24:48;;;;;;;28.88;16.85;;;;;;;3.94;94.70;98822.28;5034700;28;20499;-67
2021/11/27 08:27:14;;;;;;;29.00;15.68;;;;;;;3.95;94.85;98808.03;5037273;28;20037;-68
2021/11/27 08:29:40;;;;;;;27.70;15.18;;;;;;;4.10;94.44;98801.44;5037641;28;20146;-67
2021/11/27 08:32:05;;;;;;;27.40;15.10;;;;;;;4.16;94.43;98791.13;5018979;28;20051;-68
2021/11/27 08:34:31;;;;;;;24.60;15.25;;;;;;;4.29;94.08;98799.72;5033749;28;20461;-67
2021/11/27 08:36:56;;;;;;;27.42;15.27;;;;;;;4.29;93.13;98783.78;5032104;28;20039;-67
2021/11/27 08:39:22;;;;;;;28.42;15.52;;;;;;;4.47;91.88;98807.88;5031791;28;20018;-68
2021/11/27 08:41:47;;;;;;;23.23;13.55;;;;;;;4.64;89.15;98802.78;5042209;28;20045;-68
2021/11/27 08:44:13;;;;;;;25.80;14.73;;;;;;;4.70;88.41;98794.28;5033171;28;20029;-67
2021/11/27 08:46:39;;;;;;;24.55;13.80;;;;;;;4.81;88.12;98793.34;5032871;28;20029;-68
2021/11/27 08:49:04;;;;;;;26.17;14.95;;;;;;;4.90;87.21;98791.69;5033808;28;20112;-67
2021/11/27 08:51:30;;;;;;;22.23;13.52;;;;;;;5.01;86.49;98794.22;5037068;28;20113;-68
2021/11/27 08:53:56;;;;;;;22.40;13.77;;;;;;;5.03;84.85;98774.50;5029527;28;20029;-68
2021/11/27 08:56:22;;;;;;;22.55;13.93;;;;;;;5.14;84.39;98781.50;5038899;28;20030;-68
2021/11/27 08:58:47;;;;;;;22.58;13.63;;;;;;;5.12;83.17;98786.97;5037292;28;20473;-68
2021/11/27 09:01:13;;;;;;;23.73;14.38;;;;;;;5.26;82.22;98812.31;5030983;28;20055;-68
2021/11/27 09:03:40;;;;;;;22.83;13.85;;;;;;;5.31;83.07;98810.06;5037046;28;20057;-68
2021/11/27 09:06:06;;;;;;;22.20;14.07;;;;;;;5.35;83.59;98801.66;5036064;28;20052;-68
2021/11/27 09:08:32;;;;;;;22.23;13.70;;;;;;;5.44;81.50;98790.19;5013932;28;20025;-68
2021/11/27 09:10:58;;;;;;;21.90;13.63;;;;;;;5.52;81.61;98795.69;5032479;28;20108;-68
2021/11/27 09:13:24;;;;;;;22.17;14.25;;;;;;;5.63;81.12;98813.28;5046537;28;20025;-67
2021/11/27 09:15:50;;;;;;;23.48;14.77;;;;;;;5.66;80.40;98803.22;5032786;28;20047;-67
2021/11/27 09:18:15;;;;;;;23.90;13.82;;;;;;;5.64;80.66;98793.72;5039674;28;20068;-68
2021/11/27 09:20:41;;;;;;;22.38;14.18;;;;;;;5.79;80.49;98808.25;5036388;28;20479;-68
2021/11/27 09:23:07;;;;;;;23.17;14.13;;;;;;;5.86;80.87;98817.34;5032293;28;20021;-68
2021/11/27 09:25:32;;;;;;;21.85;14.57;;;;;;;5.73;81.02;98782.19;5048155;28;20104;-68
2021/11/27 09:27:59;;;;;;;23.27;14.50;;;;;;;5.94;80.96;98801.53;5033006;28;20032;-68
2021/11/27 09:30:27;;;;;;;22.70;13.73;;;;;;;5.98;80.40;98809.09;5032186;28;20021;-68
2021/11/27 09:32:54;;;;;;;26.42;16.50;;;;;;;6.04;79.91;98800.56;5045504;28;20038;-68
2021/11/27 09:35:19;;;;;;;26.25;15.77;;;;;;;6.09;79.86;98800.09;5047763;28;20033;-67
2021/11/27 09:37:45;;;;;;;24.23;14.75;;;;;;;6.13;80.30;98804.97;5035986;28;20048;-67
2021/11/27 09:40:11;;;;;;;26.90;15.23;;;;;;;6.11;79.32;98804.31;5028453;28;20127;-67
2021/11/27 09:42:37;;;;;;;27.50;16.20;;;;;;;6.19;78.79;98812.41;5038948;28;20036;-68
2021/11/27 09:45:05;;;;;;;28.52;16.75;;;;;;;6.20;78.71;98805.25;5036199;28;20055;-68
2021/11/27 09:47:32;;;;;;;32.17;17.90;;;;;;;6.22;78.14;98801.47;5036395;28;20021;-67
2021/11/27 09:49:59;;;;;;;26.85;16.98;;;;;;;6.16;78.09;98795.91;5035536;28;20040;-68
2021/11/27 09:52:24;;;;;;;26.85;16.42;;;;;;;6.18;79.07;98805.41;5041392;28;20026;-66
2021/11/27 09:54:50;;;;;;;24.27;15.52;;;;;;;6.26;78.59;98812.69;5045486;28;20052;-68
2021/11/27 09:57:16;;;;;;;26.05;14.88;;;;;;;6.24;78.96;98815.47;5036760;28;20393;-68
2021/11/27 09:59:43;;;;;;;23.20;15.05;;;;;;;6.30;79.41;98814.06;5040561;28;20052;-68
2021/11/27 10:02:11;;;;;;;25.52;15.35;;;;;;;6.27;78.38;98793.06;5046062;28;20178;-67
2021/11/27 10:04:42;;;;;;;21.75;13.93;;;;;;;6.32;77.71;98786.28;5031695;28;20025;-68
2021/11/27 10:07:13;;;;;;;23.05;14.25;;;;;;;6.45;77.52;98805.44;5041859;28;20033;-68
2021/11/27 10:09:39;;;;;;;21.67;13.65;;;;;;;6.54;77.50;98815.22;5039569;28;20040;-67
2021/11/27 10:12:07;;;;;;;24.10;14.30;;;;;;;6.48;77.71;98786.53;5032483;28;20488;-68
2021/11/27 10:14:39;;;;;;;23.40;14.80;;;;;;;6.49;78.00;98795.34;5040210;28;20079;-68
2021/11/27 10:17:19;;;;;;;21.80;13.85;;;;;;;6.59;77.69;98809.47;5043369;28;20112;-68
2021/11/27 10:19:50;;;;;;;22.80;13.38;;;;;;;6.55;77.59;98802.75;5036385;28;20091;-68
2021/11/27 10:22:19;;;;;;;22.02;13.68;;;;;;;6.59;77.33;98796.16;5038856;28;20052;-68
2021/11/27 10:24:47;;;;;;;21.75;14.30;;;;;;;6.67;76.77;98802.41;5046641;28;20471;-68
2021/11/27 10:27:31;;;;;;;20.27;13.80;;;;;;;6.72;76.39;98801.97;5041405;28;20036;-68
2021/11/27 10:30:06;;;;;;;23.25;14.38;;;;;;;6.74;75.51;98792.03;5045453;28;20048;-67
2021/11/27 10:32:38;;;;;;;20.02;13.85;;;;;;;6.79;76.09;98795.06;5038010;28;20384;-68
2021/11/27 10:35:08;;;;;;;20.95;13.38;;;;;;;6.84;76.95;98793.63;5037839;28;20035;-66
2021/11/27 10:37:39;;;;;;;21.60;14.15;;;;;;;6.85;76.87;98790.00;5048276;28;20107;-68
2021/11/27 10:40:22;;;;;;;24.58;15.10;;;;;;;6.86;76.65;98786.34;5041725;28;20083;-67
2021/11/27 10:42:57;;;;;;;24.88;16.15;;;;;;;6.84;77.13;98782.97;5039335;28;20111;-68
2021/11/27 10:45:24;;;;;;;23.17;14.43;;;;;;;6.95;77.04;98793.44;5030262;28;20025;-68
2021/11/27 10:47:51;;;;;;;22.90;14.02;;;;;;;6.97;76.85;98795.97;5026949;28;20034;-68
2021/11/27 10:50:22;;;;;;;25.98;15.40;;;;;;;6.96;76.84;98776.47;5013834;28;20039;-67
2021/11/27 10:52:51;;;;;;;27.15;16.13;;;;;;;6.99;76.17;98786.81;5040498;28;20021;-67
2021/11/27 10:55:18;;;;;;;23.65;14.82;;;;;;;7.03;76.25;98790.88;5046083;28;20112;-67
2021/11/27 10:57:44;;;;;;;25.95;15.85;;;;;;;7.00;76.82;98779.69;5039075;28;20075;-68
2021/11/27 11:00:27;;;;;;;26.20;16.45;;;;;;;7.04;77.29;98783.72;5035728;28;20056;-68
2021/11/27 11:02:53;;;;;;;29.35;16.75;;;;;;;7.03;76.54;98785.53;5038805;28;20759;-67
2021/11/27 11:05:19;;;;;;;25.10;15.25;;;;;;;7.06;75.91;98794.22;5033245;28;20429;-68
2021/11/27 11:07:57;;;;;;;22.63;15.18;;;;;;;7.07;76.43;98805.56;5038457;28;20021;-67
2021/11/27 11:10:30;;;;;;;23.63;14.68;;;;;;;7.04;76.69;98779.19;5043055;28;20083;-69
2021/11/27 11:13:09;;;;;;;27.95;15.65;;;;;;;7.10;76.54;98783.13;5045739;28;20032;-68
2021/11/27 11:15:46;;;;;;;26.33;15.52;;;;;;;7.14;77.04;98789.81;5038127;28;20029;-67
2021/11/27 11:18:15;;;;;;;27.05;16.23;;;;;;;7.16;77.54;98784.34;5034231;28;20021;-67
2021/11/27 11:20:47;;;;;;;24.40;16.25;;;;;;;7.19;77.62;98773.38;5018746;28;20055;-68